Pagina principale
METAR-TAF:

METAR-TAF

Aeroporti :

Trevico, Italia

latitudine: 41-03N, longitudine: 015-14E, altezza: 1085 m

Osservazione

Il bollettino è stato emesso 39 minuti fa, alle 13:55 UTC
Vento 6 kt da nord/nord-ovest
Temperature 8°C
Umidità 76%
Pressione 1023 hPa
Visibilità 10 km o più
nessuna nube inferiore a 1500 m e nessun cumulonembo

METAR: LIRT 181355Z 33006KT CAVOK 08/04 Q1023 RMK FEW FEW200 MON W NW INVIS VAL W NW FOSCHIA SKC SUP VIS MIN 9999W

Ora: 15:34 (14:34 UTC)


TAF: mancante

Osservazioni e previsioni meteorologiche di più di 4000 aeroporti (messaggi METAR e TAF).

Le stazioni disponibili sono rappresentate dai dischi gialli e rossi sulla carta.

Puntare il mouse per vedere il nome della stazione.

Clicca sopra per visualizzare le osservazioni e previsioni meteorologiche.

Per cambiare la mappa : fare clic sui pulsanti verdi con una croce nera per ingrandire, il pulsante verde con un trattino per diminuire, o sulla freccia verde per le mappe adiacenti.


METAR-TAF: